createdAt,value
2023-03-29T00:00:20.136Z,5.3
2023-03-29T00:02:22.178Z,5.4
2023-03-29T00:04:24.347Z,5.4
2023-03-29T00:06:29.476Z,5.4
2023-03-29T00:08:31.493Z,5.4
2023-03-29T00:10:33.548Z,5.4
2023-03-29T00:11:36.171Z,5.4
2023-03-29T00:15:40.219Z,5.4
2023-03-29T00:17:42.279Z,5.4
2023-03-29T00:19:47.504Z,5.4
2023-03-29T00:21:49.551Z,5.4
2023-03-29T00:23:51.617Z,5.4
2023-03-29T00:25:53.622Z,5.4
2023-03-29T00:27:55.632Z,5.4
2023-03-29T00:29:57.686Z,5.4
2023-03-29T00:31:59.717Z,5.4
2023-03-29T00:34:04.994Z,5.4
2023-03-29T00:36:07.108Z,5.4
2023-03-29T00:38:09.056Z,5.4
2023-03-29T00:40:11.073Z,5.4
2023-03-29T00:42:13.141Z,5.4
2023-03-29T00:44:15.138Z,5.4
2023-03-29T00:46:17.229Z,5.5
2023-03-29T00:48:22.452Z,5.4
2023-03-29T00:50:24.491Z,5.4
2023-03-29T00:52:26.531Z,5.5
2023-03-29T00:54:28.557Z,5.5
2023-03-29T01:04:41.967Z,5.5
2023-03-29T01:06:44.026Z,5.5
2023-03-29T01:07:46.609Z,5.5
2023-03-29T01:11:50.680Z,5.5
2023-03-29T01:13:52.756Z,5.5
2023-03-29T01:18:00.109Z,5.5
2023-03-29T01:20:02.091Z,5.6
2023-03-29T01:26:08.212Z,5.5
2023-03-29T01:28:10.246Z,5.6
2023-03-29T01:30:15.504Z,5.6
2023-03-29T01:32:17.549Z,5.6
2023-03-29T01:34:19.588Z,5.6
2023-03-29T01:36:21.634Z,5.6
2023-03-29T01:38:23.666Z,5.6
2023-03-29T01:42:27.741Z,5.7
2023-03-29T01:44:33.022Z,5.7
2023-03-29T01:46:35.119Z,5.8
2023-03-29T01:48:37.102Z,5.7
2023-03-29T01:50:39.135Z,5.7
2023-03-29T01:52:41.200Z,5.8
2023-03-29T01:54:43.220Z,5.7
2023-03-29T01:56:45.285Z,5.8
2023-03-29T01:58:50.537Z,5.9
2023-03-29T02:00:52.552Z,5.9
2023-03-29T02:02:54.678Z,5.9
2023-03-29T02:09:27.518Z,5.9
2023-03-29T02:13:34.863Z,6
2023-03-29T02:17:39.005Z,6
2023-03-29T02:19:40.987Z,6
2023-03-29T02:21:43.014Z,6.1
2023-03-29T02:23:45.097Z,6.1
2023-03-29T02:25:50.340Z,6.1
2023-03-29T02:27:52.419Z,6.1
2023-03-29T02:29:54.463Z,6.1
2023-03-29T02:31:56.529Z,6.1
2023-03-29T02:33:58.573Z,6.1
2023-03-29T02:36:00.668Z,6.1
2023-03-29T02:38:02.665Z,6.2
2023-03-29T02:40:07.991Z,6.2
2023-03-29T02:42:09.997Z,6.2
2023-03-29T02:44:12.347Z,6.2
2023-03-29T02:48:16.447Z,6.2
2023-03-29T02:50:18.531Z,6.3
2023-03-29T02:52:20.600Z,6.2
2023-03-29T02:58:29.971Z,6.3
2023-03-29T02:59:32.616Z,6.2
2023-03-29T03:05:38.803Z,6
2023-03-29T03:07:44.095Z,5.9
2023-03-29T03:09:46.165Z,5.9
2023-03-29T03:11:48.190Z,5.9
2023-03-29T03:13:50.266Z,5.9
2023-03-29T03:15:52.321Z,5.9
2023-03-29T03:22:01.739Z,5.7
2023-03-29T03:24:03.754Z,5.7
2023-03-29T03:28:08.253Z,5.7
2023-03-29T03:32:11.992Z,5.6
2023-03-29T03:34:14.020Z,5.7
2023-03-29T03:36:19.216Z,5.6
2023-03-29T03:38:21.268Z,5.7
2023-03-29T03:40:23.318Z,5.7
2023-03-29T03:42:25.358Z,5.6
2023-03-29T03:44:27.409Z,5.6
2023-03-29T03:46:29.861Z,5.6
2023-03-29T03:54:40.870Z,5.7
2023-03-29T03:55:43.609Z,5.7
2023-03-29T03:57:45.558Z,5.7
2023-03-29T03:59:47.590Z,5.7
2023-03-29T04:01:49.634Z,5.7
2023-03-29T04:03:55.024Z,5.7
2023-03-29T04:05:56.944Z,5.7
2023-03-29T04:07:59.022Z,5.7
2023-03-29T04:12:03.090Z,5.7
2023-03-29T04:14:05.145Z,5.7
2023-03-29T04:16:07.297Z,5.8
2023-03-29T04:18:12.547Z,5.7
2023-03-29T04:20:14.520Z,5.8
2023-03-29T04:22:16.533Z,5.8
2023-03-29T04:34:32.041Z,6
2023-03-29T04:38:36.186Z,6
2023-03-29T04:42:40.218Z,6
2023-03-29T04:44:42.315Z,6.1
2023-03-29T04:46:47.604Z,6
2023-03-29T04:48:49.642Z,6.2
2023-03-29T04:50:51.652Z,6.1
2023-03-29T04:51:54.318Z,6.3
2023-03-29T05:06:13.457Z,6.4
2023-03-29T05:08:15.509Z,6.3
2023-03-29T05:10:17.581Z,6.4
2023-03-29T05:14:24.910Z,6.4
2023-03-29T05:20:31.078Z,6.4
2023-03-29T05:22:33.126Z,6.4
2023-03-29T05:24:35.164Z,6.4
2023-03-29T05:28:42.558Z,6.5
2023-03-29T05:30:44.726Z,6.4
2023-03-29T05:32:46.683Z,6.5
2023-03-29T05:34:48.729Z,6.5
2023-03-29T05:36:50.750Z,6.5
2023-03-29T05:38:52.805Z,6.5
2023-03-29T05:40:54.868Z,6.6
2023-03-29T05:43:00.157Z,6.6
2023-03-29T05:45:02.204Z,6.6
2023-03-29T05:47:04.278Z,6.6
2023-03-29T05:49:33.122Z,6.6
2023-03-29T05:51:35.165Z,6.7
2023-03-29T05:53:37.261Z,6.7
2023-03-29T05:55:42.544Z,6.7
2023-03-29T05:57:44.591Z,6.7
2023-03-29T05:59:46.658Z,6.7
2023-03-29T06:01:48.726Z,6.8
2023-03-29T06:03:50.985Z,6.7
2023-03-29T06:05:52.846Z,6.8
2023-03-29T06:07:54.915Z,6.8
2023-03-29T06:10:00.193Z,6.8
2023-03-29T06:12:02.310Z,6.8
2023-03-29T06:16:09.117Z,6.8
2023-03-29T06:18:08.582Z,6.9
2023-03-29T06:20:10.539Z,6.9
2023-03-29T06:36:30.265Z,7.1
2023-03-29T06:42:39.680Z,7.2
2023-03-29T06:43:42.347Z,7.2
2023-03-29T06:45:44.655Z,7.3
2023-03-29T06:47:46.519Z,7.3
2023-03-29T07:02:04.250Z,7.6
2023-03-29T07:04:06.304Z,7.7
2023-03-29T07:06:11.648Z,7.7
2023-03-29T07:08:13.698Z,7.7
2023-03-29T07:10:15.784Z,7.8
2023-03-29T07:24:33.590Z,8.3
2023-03-29T07:30:39.861Z,8.4
2023-03-29T07:34:47.416Z,8.5
2023-03-29T07:36:49.533Z,8.5
2023-03-29T07:38:52.911Z,8.6
2023-03-29T07:39:54.263Z,8.6
2023-03-29T07:41:56.366Z,8.7
2023-03-29T07:43:58.490Z,8.7
2023-03-29T07:48:06.173Z,8.8
2023-03-29T07:50:08.028Z,9
2023-03-29T07:52:10.147Z,9.1
2023-03-29T07:54:12.240Z,9
2023-03-29T07:56:14.357Z,9.1
2023-03-29T07:58:16.474Z,9.2
2023-03-29T08:00:18.593Z,9.3
2023-03-29T08:02:23.953Z,9.6
2023-03-29T08:04:26.078Z,9.6
2023-03-29T08:06:28.103Z,9.7
2023-03-29T08:08:30.228Z,9.6
2023-03-29T08:10:32.335Z,9.7
2023-03-29T08:12:34.455Z,9.8
2023-03-29T08:16:41.842Z,9.8
2023-03-29T08:20:45.941Z,10
2023-03-29T08:22:47.963Z,10
2023-03-29T08:24:50.106Z,10.1
2023-03-29T08:26:52.275Z,9.9
2023-03-29T08:36:06.620Z,10.3
2023-03-29T08:38:08.688Z,10.2
2023-03-29T08:40:10.698Z,10.3
2023-03-29T08:42:12.777Z,10.4
2023-03-29T08:44:18.115Z,10.5
2023-03-29T08:46:20.295Z,10.5
2023-03-29T08:48:22.282Z,10.4
2023-03-29T08:50:24.315Z,10.5
2023-03-29T08:52:26.450Z,10.3
2023-03-29T08:54:28.472Z,10.3
2023-03-29T08:56:32.831Z,10.3
2023-03-29T08:58:35.996Z,10.4
2023-03-29T09:00:38.144Z,10.4
2023-03-29T09:04:42.307Z,10.4
2023-03-29T09:06:44.362Z,10.4
2023-03-29T09:08:46.480Z,10.4
2023-03-29T09:10:48.648Z,10.6
2023-03-29T09:12:54.051Z,10.7
2023-03-29T09:16:58.226Z,10.7
2023-03-29T09:21:02.650Z,10.8
2023-03-29T09:23:04.533Z,10.9
2023-03-29T09:25:06.695Z,10.8
2023-03-29T09:29:14.247Z,10.9
2023-03-29T09:33:45.141Z,10.9
2023-03-29T09:35:47.305Z,10.9
2023-03-29T09:37:49.440Z,10.9
2023-03-29T09:39:54.822Z,10.9
2023-03-29T09:41:56.878Z,10.9
2023-03-29T09:43:58.952Z,11
2023-03-29T09:46:01.055Z,11.2
2023-03-29T09:48:03.091Z,11.1
2023-03-29T09:52:07.344Z,11.1
2023-03-29T10:02:21.204Z,11.3
2023-03-29T10:10:32.620Z,11.9
2023-03-29T10:12:34.678Z,11.9
2023-03-29T10:14:36.842Z,12.1
2023-03-29T10:16:38.930Z,12.3
2023-03-29T10:18:40.938Z,12.1
2023-03-29T10:20:43.021Z,12.1
2023-03-29T10:22:48.289Z,12
2023-03-29T10:24:50.368Z,12.1
2023-03-29T10:26:52.418Z,12.1
2023-03-29T10:40:10.508Z,12.6
2023-03-29T10:42:12.596Z,12.9
2023-03-29T10:44:14.665Z,12.7
2023-03-29T10:48:18.783Z,12.7
2023-03-29T10:52:27.579Z,13
2023-03-29T10:54:29.672Z,12.8
2023-03-29T10:56:31.731Z,12.6
2023-03-29T10:58:33.796Z,12.5
2023-03-29T11:00:35.876Z,12.8
2023-03-29T11:02:38.029Z,12.7
2023-03-29T11:04:43.155Z,12.6
2023-03-29T11:06:45.232Z,12.6
2023-03-29T11:08:47.338Z,12.4
2023-03-29T11:12:51.479Z,12.7
2023-03-29T11:14:53.505Z,12.8
2023-03-29T11:16:55.571Z,12.4
2023-03-29T11:19:00.763Z,12.6
2023-03-29T11:23:05.348Z,12.6
2023-03-29T11:24:07.519Z,12.5
2023-03-29T11:26:09.605Z,12.6
2023-03-29T11:28:11.644Z,12.7
2023-03-29T11:32:18.981Z,13
2023-03-29T11:34:21.012Z,12.9
2023-03-29T11:38:25.142Z,13.1
2023-03-29T11:40:27.206Z,12.9
2023-03-29T11:46:36.608Z,13.4
2023-03-29T11:50:40.735Z,13.4
2023-03-29T11:54:44.833Z,13.8
2023-03-29T12:00:54.181Z,13.5
2023-03-29T12:02:56.385Z,13.6
2023-03-29T12:09:02.548Z,13.5
2023-03-29T12:11:04.831Z,13.5
2023-03-29T12:13:06.649Z,13.4
2023-03-29T12:15:11.874Z,13.1
2023-03-29T12:17:13.970Z,13
2023-03-29T12:20:18.643Z,12.8
2023-03-29T12:22:20.725Z,12.8
2023-03-29T12:28:30.102Z,12.6
2023-03-29T12:30:34.226Z,12.6
2023-03-29T12:32:34.314Z,12.6
2023-03-29T12:34:36.313Z,12.6
2023-03-29T12:36:38.410Z,12.6
2023-03-29T12:38:40.480Z,12.5
2023-03-29T12:40:42.559Z,12.6
2023-03-29T13:03:11.694Z,12.5
2023-03-29T13:05:13.720Z,12.4
2023-03-29T13:09:17.835Z,12.4
2023-03-29T13:11:23.049Z,12.4
2023-03-29T13:17:55.851Z,12.5
2023-03-29T13:28:09.340Z,12.2
2023-03-29T13:30:11.402Z,12.1
2023-03-29T13:32:13.455Z,12.1
2023-03-29T13:48:33.231Z,12.2
2023-03-29T13:50:35.169Z,12.3
2023-03-29T13:54:42.452Z,12.4
2023-03-29T13:58:46.577Z,12.2
2023-03-29T14:00:48.661Z,12.2
2023-03-29T14:02:50.780Z,12.4
2023-03-29T14:04:52.796Z,12.6
2023-03-29T14:06:57.975Z,12.8
2023-03-29T14:11:02.127Z,13.2
2023-03-29T14:12:04.718Z,13.1
2023-03-29T14:14:06.775Z,13.1
2023-03-29T14:20:16.116Z,12.7
2023-03-29T14:22:18.166Z,12.7
2023-03-29T14:24:20.223Z,12.8
2023-03-29T14:26:22.304Z,12.8
2023-03-29T14:30:26.460Z,12.7
2023-03-29T14:32:28.545Z,12.8
2023-03-29T14:34:33.711Z,12.8
2023-03-29T14:36:35.956Z,12.7
2023-03-29T14:38:37.853Z,12.8
2023-03-29T14:40:39.937Z,12.9
2023-03-29T14:42:41.987Z,12.8
2023-03-29T14:44:44.059Z,12.9
2023-03-29T14:46:46.152Z,12.9
2023-03-29T14:48:51.334Z,12.9
2023-03-29T14:50:53.414Z,13
2023-03-29T14:52:55.454Z,13
2023-03-29T14:54:57.526Z,13
2023-03-29T14:56:59.627Z,13
2023-03-29T14:59:01.672Z,13
2023-03-29T15:01:03.810Z,13
2023-03-29T15:03:09.236Z,13
2023-03-29T15:05:10.995Z,12.9
2023-03-29T15:07:13.062Z,13
2023-03-29T15:08:15.663Z,13.1
2023-03-29T15:10:17.733Z,13.1
2023-03-29T15:14:21.843Z,13.2
2023-03-29T15:22:33.258Z,13.5
2023-03-29T15:24:35.308Z,13.6
2023-03-29T15:28:39.449Z,13.3
2023-03-29T15:36:50.970Z,13.3
2023-03-29T15:38:52.953Z,13.3
2023-03-29T15:40:55.037Z,13.4
2023-03-29T15:42:57.092Z,13.3
2023-03-29T15:45:02.371Z,13.3
2023-03-29T15:47:04.398Z,13.4
2023-03-29T15:53:15.586Z,13.4
2023-03-29T16:04:26.719Z,13.3
2023-03-29T16:06:28.786Z,13.3
2023-03-29T16:08:30.873Z,13.4
2023-03-29T16:10:32.904Z,13.3
2023-03-29T16:14:42.552Z,13.3
2023-03-29T16:28:57.847Z,13.4
2023-03-29T16:33:02.071Z,13.4
2023-03-29T16:37:06.109Z,13.4
2023-03-29T16:55:32.536Z,13.6
2023-03-29T16:57:34.638Z,13.5
2023-03-29T16:59:36.661Z,13.5
2023-03-29T17:02:05.336Z,13.6
2023-03-29T17:08:14.690Z,13.5
2023-03-29T17:10:16.768Z,13.5
2023-03-29T17:20:27.124Z,13.4
2023-03-29T17:22:32.329Z,13.4
2023-03-29T17:24:34.406Z,13.4
2023-03-29T17:26:36.490Z,13.4
2023-03-29T17:28:38.589Z,13.3
2023-03-29T17:32:43.132Z,13.4
2023-03-29T17:34:44.788Z,13.4
2023-03-29T17:44:58.306Z,13.3
2023-03-29T17:47:00.422Z,13.3
2023-03-29T17:49:02.463Z,13.2
2023-03-29T17:56:14.423Z,13.2
2023-03-29T17:58:16.512Z,13.2
2023-03-29T18:00:18.556Z,13.2
2023-03-29T18:02:20.657Z,13.1
2023-03-29T18:04:25.859Z,13.1
2023-03-29T18:06:27.920Z,13.1
2023-03-29T18:08:30.003Z,13.1
2023-03-29T18:10:32.072Z,13
2023-03-29T18:12:34.147Z,13.1
2023-03-29T18:14:36.201Z,13
2023-03-29T18:16:38.355Z,13
2023-03-29T18:24:49.709Z,13
2023-03-29T18:26:51.772Z,13
2023-03-29T18:33:01.144Z,12.8
2023-03-29T18:35:03.261Z,12.9
2023-03-29T18:37:05.255Z,13
2023-03-29T18:45:13.530Z,12.9
2023-03-29T18:49:20.810Z,12.9
2023-03-29T18:51:22.910Z,12.8
2023-03-29T18:52:25.510Z,12.8
2023-03-29T18:54:27.581Z,12.7
2023-03-29T18:58:31.755Z,12.6
2023-03-29T19:00:36.953Z,12.5
2023-03-29T19:02:39.070Z,12.5
2023-03-29T19:04:41.088Z,12.6
2023-03-29T19:06:43.152Z,12.5
2023-03-29T19:08:45.221Z,12.5
2023-03-29T19:10:47.275Z,12.4
2023-03-29T19:12:49.364Z,12.3
2023-03-29T19:14:54.556Z,12.3
2023-03-29T19:16:56.684Z,12.3
2023-03-29T19:21:00.773Z,12.3
2023-03-29T19:23:02.835Z,12.3
2023-03-29T19:25:04.934Z,12.2
2023-03-29T19:27:06.988Z,12.1
2023-03-29T19:29:12.177Z,12
2023-03-29T19:39:22.508Z,12.1
2023-03-29T19:41:24.578Z,12.1
2023-03-29T19:43:29.764Z,12
2023-03-29T19:45:31.812Z,12
2023-03-29T19:48:36.546Z,11.9
2023-03-29T19:50:38.539Z,11.9
2023-03-29T19:52:40.590Z,11.9
2023-03-29T19:54:42.667Z,11.8
2023-03-29T20:00:52.018Z,11.7
2023-03-29T20:04:56.125Z,11.7
2023-03-29T20:06:58.174Z,11.6
2023-03-29T20:11:05.804Z,11.5
2023-03-29T20:13:07.578Z,11.6
2023-03-29T20:15:09.625Z,11.5
2023-03-29T20:17:11.708Z,11.5
2023-03-29T20:19:13.754Z,11.5
2023-03-29T20:21:15.906Z,11.5
2023-03-29T20:23:17.973Z,11.4
2023-03-29T20:25:23.153Z,11.4
2023-03-29T20:31:29.626Z,11.4
2023-03-29T20:33:31.673Z,11.4
2023-03-29T20:39:41.358Z,11.3
2023-03-29T20:43:45.676Z,11.3
2023-03-29T20:46:14.764Z,11.3
2023-03-29T20:48:16.466Z,11.4
2023-03-29T20:52:23.834Z,11.3
2023-03-29T20:54:25.875Z,11.4
2023-03-29T20:56:27.897Z,11.3
2023-03-29T21:06:41.403Z,11.2
2023-03-29T21:10:45.486Z,11.3
2023-03-29T21:12:47.537Z,11.3
2023-03-29T21:14:49.681Z,11.3
2023-03-29T21:18:53.877Z,11.4
2023-03-29T21:20:59.152Z,11.4
2023-03-29T21:23:01.321Z,11.4
2023-03-29T21:35:17.258Z,11.5
2023-03-29T21:40:24.136Z,11.4
2023-03-29T21:42:26.306Z,11.5
2023-03-29T21:44:28.471Z,11.6
2023-03-29T21:48:35.671Z,11.5
2023-03-29T21:50:37.709Z,11.6
2023-03-29T21:52:39.887Z,11.6
2023-03-29T21:54:42.024Z,11.6
2023-03-29T21:56:44.163Z,11.5
2023-03-29T21:58:46.243Z,11.4
2023-03-29T22:00:48.384Z,11.5
2023-03-29T22:02:53.831Z,11.4
2023-03-29T22:06:58.071Z,11.4
2023-03-29T22:09:00.240Z,11.4
2023-03-29T22:11:02.512Z,11.3
2023-03-29T22:17:11.720Z,11.5
2023-03-29T22:19:13.847Z,11.7
2023-03-29T22:23:18.008Z,12
2023-03-29T22:25:20.201Z,11.9
2023-03-29T22:29:24.363Z,11.9
2023-03-29T22:33:33.358Z,12.4
2023-03-29T22:35:35.500Z,12.6
2023-03-29T22:36:38.057Z,13.1
2023-03-29T22:38:40.110Z,13
2023-03-29T22:40:42.151Z,13.2
2023-03-29T22:42:44.203Z,13.6
2023-03-29T22:44:49.499Z,13.6
2023-03-29T22:46:51.543Z,13.7
2023-03-29T22:48:53.598Z,13.5
2023-03-29T22:50:55.643Z,13.7
2023-03-29T22:52:57.692Z,13.7
2023-03-29T22:54:59.770Z,13.7
2023-03-29T22:57:01.873Z,13.6
2023-03-29T22:59:07.009Z,13.6
2023-03-29T23:01:09.395Z,13.6
2023-03-29T23:03:11.145Z,13.5
2023-03-29T23:05:13.224Z,13.6
2023-03-29T23:07:15.258Z,13.8
2023-03-29T23:09:17.329Z,13.7
2023-03-29T23:11:19.404Z,13.9
2023-03-29T23:13:24.622Z,13.7
2023-03-29T23:15:29.064Z,13.7
2023-03-29T23:17:29.295Z,13.6
2023-03-29T23:19:31.345Z,13.6
2023-03-29T23:21:33.410Z,13.6
2023-03-29T23:23:35.494Z,13.7
2023-03-29T23:25:37.546Z,13.7
2023-03-29T23:27:42.746Z,13.7
2023-03-29T23:29:44.840Z,13.7
2023-03-29T23:31:46.900Z,13.8
2023-03-29T23:32:49.548Z,13.8
2023-03-29T23:38:55.706Z,13.7
2023-03-29T23:43:02.994Z,13.9
2023-03-29T23:47:07.266Z,13.9
2023-03-29T23:49:09.195Z,13.9
2023-03-29T23:57:20.680Z,13.9
2023-03-29T23:59:22.678Z,13.9
